sensor_id;sensor_type;location;lat;lon;timestamp;P1;durP1;ratioP1;P2;durP2;ratioP2
40449;SDS011;41787;53.570;10.032;2023-01-06T00:01:00;16.08;;;5.22;;
40449;SDS011;41787;53.570;10.032;2023-01-06T00:03:25;11.75;;;4.85;;
40449;SDS011;41787;53.570;10.032;2023-01-06T00:05:55;14.82;;;5.18;;
40449;SDS011;41787;53.570;10.032;2023-01-06T00:08:21;16.25;;;5.13;;
40449;SDS011;41787;53.570;10.032;2023-01-06T00:10:47;8.82;;;4.60;;
40449;SDS011;41787;53.570;10.032;2023-01-06T00:13:13;12.00;;;5.22;;
40449;SDS011;41787;53.570;10.032;2023-01-06T00:15:39;21.98;;;5.88;;
40449;SDS011;41787;53.570;10.032;2023-01-06T00:18:05;20.23;;;5.53;;
40449;SDS011;41787;53.570;10.032;2023-01-06T00:20:31;18.58;;;5.88;;
40449;SDS011;41787;53.570;10.032;2023-01-06T00:22:58;11.85;;;5.60;;
40449;SDS011;41787;53.570;10.032;2023-01-06T00:25:24;16.10;;;6.15;;
40449;SDS011;41787;53.570;10.032;2023-01-06T00:27:49;17.20;;;6.72;;
40449;SDS011;41787;53.570;10.032;2023-01-06T00:30:15;19.73;;;7.28;;
40449;SDS011;41787;53.570;10.032;2023-01-06T00:32:41;21.33;;;8.00;;
40449;SDS011;41787;53.570;10.032;2023-01-06T00:35:08;18.75;;;8.45;;
40449;SDS011;41787;53.570;10.032;2023-01-06T00:37:34;18.42;;;7.50;;
40449;SDS011;41787;53.570;10.032;2023-01-06T00:40:00;24.83;;;9.30;;
40449;SDS011;41787;53.570;10.032;2023-01-06T00:42:25;20.27;;;8.25;;
40449;SDS011;41787;53.570;10.032;2023-01-06T00:44:51;19.63;;;8.57;;
40449;SDS011;41787;53.570;10.032;2023-01-06T00:47:18;23.23;;;9.40;;
40449;SDS011;41787;53.570;10.032;2023-01-06T00:49:44;23.27;;;10.40;;
40449;SDS011;41787;53.570;10.032;2023-01-06T00:52:12;31.38;;;10.95;;
40449;SDS011;41787;53.570;10.032;2023-01-06T00:54:39;27.20;;;11.57;;
40449;SDS011;41787;53.570;10.032;2023-01-06T00:57:05;29.27;;;12.05;;
40449;SDS011;41787;53.570;10.032;2023-01-06T00:59:32;28.20;;;11.50;;
40449;SDS011;41787;53.570;10.032;2023-01-06T01:01:58;31.83;;;11.65;;
40449;SDS011;41787;53.570;10.032;2023-01-06T01:04:24;21.73;;;10.80;;
40449;SDS011;41787;53.570;10.032;2023-01-06T01:06:51;22.13;;;10.38;;
40449;SDS011;41787;53.570;10.032;2023-01-06T01:09:21;24.42;;;10.27;;
40449;SDS011;41787;53.570;10.032;2023-01-06T01:11:47;30.27;;;11.02;;
40449;SDS011;41787;53.570;10.032;2023-01-06T01:14:33;27.35;;;10.98;;
40449;SDS011;41787;53.570;10.032;2023-01-06T01:16:59;26.58;;;10.57;;
40449;SDS011;41787;53.570;10.032;2023-01-06T01:19:25;25.48;;;10.27;;
40449;SDS011;41787;53.570;10.032;2023-01-06T01:21:51;26.83;;;11.25;;
40449;SDS011;41787;53.570;10.032;2023-01-06T01:24:17;23.65;;;10.77;;
40449;SDS011;41787;53.570;10.032;2023-01-06T01:26:43;21.38;;;10.63;;
40449;SDS011;41787;53.570;10.032;2023-01-06T01:29:13;26.02;;;11.10;;
40449;SDS011;41787;53.570;10.032;2023-01-06T01:31:39;26.30;;;11.27;;
40449;SDS011;41787;53.570;10.032;2023-01-06T01:34:06;21.70;;;9.95;;
40449;SDS011;41787;53.570;10.032;2023-01-06T01:36:32;24.60;;;10.05;;
40449;SDS011;41787;53.570;10.032;2023-01-06T01:38:58;17.30;;;9.32;;
40449;SDS011;41787;53.570;10.032;2023-01-06T01:41:25;23.70;;;11.23;;
40449;SDS011;41787;53.570;10.032;2023-01-06T01:43:56;27.30;;;10.98;;
40449;SDS011;41787;53.570;10.032;2023-01-06T01:46:25;28.63;;;10.07;;
40449;SDS011;41787;53.570;10.032;2023-01-06T01:48:53;21.65;;;11.60;;
40449;SDS011;41787;53.570;10.032;2023-01-06T01:51:21;20.73;;;10.27;;
40449;SDS011;41787;53.570;10.032;2023-01-06T01:53:50;19.50;;;9.98;;
40449;SDS011;41787;53.570;10.032;2023-01-06T01:56:18;21.85;;;10.85;;
40449;SDS011;41787;53.570;10.032;2023-01-06T01:58:52;22.25;;;11.23;;
40449;SDS011;41787;53.570;10.032;2023-01-06T02:01:18;21.80;;;9.15;;
40449;SDS011;41787;53.570;10.032;2023-01-06T02:03:44;25.02;;;10.10;;
40449;SDS011;41787;53.570;10.032;2023-01-06T02:06:12;20.63;;;9.35;;
40449;SDS011;41787;53.570;10.032;2023-01-06T02:08:40;23.20;;;10.02;;
40449;SDS011;41787;53.570;10.032;2023-01-06T02:11:07;18.85;;;9.30;;
40449;SDS011;41787;53.570;10.032;2023-01-06T02:13:34;28.02;;;10.57;;
40449;SDS011;41787;53.570;10.032;2023-01-06T02:21:22;24.25;;;10.32;;
40449;SDS011;41787;53.570;10.032;2023-01-06T02:31:30;19.35;;;10.05;;
40449;SDS011;41787;53.570;10.032;2023-01-06T02:34:03;19.27;;;10.50;;
40449;SDS011;41787;53.570;10.032;2023-01-06T02:54:19;15.32;;;9.18;;
40449;SDS011;41787;53.570;10.032;2023-01-06T02:56:53;18.42;;;9.68;;
40449;SDS011;41787;53.570;10.032;2023-01-06T02:59:25;20.65;;;10.32;;
40449;SDS011;41787;53.570;10.032;2023-01-06T03:01:53;21.60;;;11.30;;
40449;SDS011;41787;53.570;10.032;2023-01-06T03:04:22;25.63;;;10.65;;
40449;SDS011;41787;53.570;10.032;2023-01-06T03:06:49;24.92;;;11.60;;
40449;SDS011;41787;53.570;10.032;2023-01-06T03:09:18;24.08;;;11.48;;
40449;SDS011;41787;53.570;10.032;2023-01-06T03:11:45;22.15;;;11.10;;
40449;SDS011;41787;53.570;10.032;2023-01-06T03:16:38;24.25;;;11.75;;
40449;SDS011;41787;53.570;10.032;2023-01-06T03:19:04;24.55;;;11.30;;
40449;SDS011;41787;53.570;10.032;2023-01-06T03:21:31;20.90;;;11.05;;
40449;SDS011;41787;53.570;10.032;2023-01-06T03:23:58;20.45;;;11.15;;
40449;SDS011;41787;53.570;10.032;2023-01-06T03:26:24;20.02;;;10.20;;
40449;SDS011;41787;53.570;10.032;2023-01-06T03:28:51;20.17;;;11.20;;
40449;SDS011;41787;53.570;10.032;2023-01-06T03:41:32;22.10;;;11.80;;
40449;SDS011;41787;53.570;10.032;2023-01-06T03:44:22;22.70;;;12.43;;
40449;SDS011;41787;53.570;10.032;2023-01-06T03:46:51;32.42;;;13.48;;
40449;SDS011;41787;53.570;10.032;2023-01-06T03:49:25;30.55;;;14.23;;
40449;SDS011;41787;53.570;10.032;2023-01-06T03:51:54;28.02;;;13.45;;
40449;SDS011;41787;53.570;10.032;2023-01-06T03:56:50;41.15;;;16.65;;
40449;SDS011;41787;53.570;10.032;2023-01-06T03:59:22;33.70;;;15.55;;
40449;SDS011;41787;53.570;10.032;2023-01-06T04:01:50;31.42;;;15.23;;
40449;SDS011;41787;53.570;10.032;2023-01-06T04:04:16;35.38;;;15.43;;
40449;SDS011;41787;53.570;10.032;2023-01-06T04:06:43;38.03;;;14.93;;
40449;SDS011;41787;53.570;10.032;2023-01-06T04:09:09;34.10;;;14.57;;
40449;SDS011;41787;53.570;10.032;2023-01-06T04:11:35;34.95;;;15.77;;
40449;SDS011;41787;53.570;10.032;2023-01-06T04:14:20;36.45;;;15.32;;
40449;SDS011;41787;53.570;10.032;2023-01-06T04:16:46;33.13;;;15.40;;
40449;SDS011;41787;53.570;10.032;2023-01-06T04:19:12;39.00;;;14.88;;
40449;SDS011;41787;53.570;10.032;2023-01-06T04:21:37;30.42;;;15.38;;
40449;SDS011;41787;53.570;10.032;2023-01-06T04:24:04;42.75;;;17.05;;
40449;SDS011;41787;53.570;10.032;2023-01-06T04:26:30;40.60;;;15.85;;
40449;SDS011;41787;53.570;10.032;2023-01-06T04:28:57;32.08;;;15.50;;
40449;SDS011;41787;53.570;10.032;2023-01-06T04:31:23;35.72;;;16.13;;
40449;SDS011;41787;53.570;10.032;2023-01-06T04:33:49;33.33;;;14.98;;
40449;SDS011;41787;53.570;10.032;2023-01-06T04:36:15;38.00;;;16.40;;
40449;SDS011;41787;53.570;10.032;2023-01-06T04:38:44;39.13;;;17.10;;
40449;SDS011;41787;53.570;10.032;2023-01-06T04:41:10;41.97;;;16.15;;
40449;SDS011;41787;53.570;10.032;2023-01-06T04:43:35;34.00;;;16.52;;
40449;SDS011;41787;53.570;10.032;2023-01-06T04:46:01;34.55;;;17.13;;
40449;SDS011;41787;53.570;10.032;2023-01-06T04:48:27;34.88;;;16.35;;
40449;SDS011;41787;53.570;10.032;2023-01-06T04:51:00;41.60;;;16.88;;
40449;SDS011;41787;53.570;10.032;2023-01-06T04:53:26;38.83;;;16.95;;
40449;SDS011;41787;53.570;10.032;2023-01-06T04:55:52;40.10;;;17.48;;
40449;SDS011;41787;53.570;10.032;2023-01-06T04:58:18;40.92;;;17.88;;
40449;SDS011;41787;53.570;10.032;2023-01-06T05:00:44;51.45;;;18.58;;
40449;SDS011;41787;53.570;10.032;2023-01-06T05:03:10;47.60;;;18.88;;
40449;SDS011;41787;53.570;10.032;2023-01-06T05:05:37;41.33;;;19.17;;
40449;SDS011;41787;53.570;10.032;2023-01-06T05:08:03;43.78;;;18.38;;
40449;SDS011;41787;53.570;10.032;2023-01-06T05:10:29;42.58;;;19.10;;
40449;SDS011;41787;53.570;10.032;2023-01-06T05:12:54;49.60;;;20.15;;
40449;SDS011;41787;53.570;10.032;2023-01-06T05:15:20;43.70;;;20.60;;
40449;SDS011;41787;53.570;10.032;2023-01-06T05:17:46;46.47;;;19.70;;
40449;SDS011;41787;53.570;10.032;2023-01-06T05:20:12;46.78;;;20.13;;
40449;SDS011;41787;53.570;10.032;2023-01-06T05:22:38;39.40;;;18.95;;
40449;SDS011;41787;53.570;10.032;2023-01-06T05:25:04;40.10;;;17.70;;
40449;SDS011;41787;53.570;10.032;2023-01-06T05:27:30;36.05;;;17.98;;
40449;SDS011;41787;53.570;10.032;2023-01-06T05:29:56;36.08;;;18.05;;
40449;SDS011;41787;53.570;10.032;2023-01-06T05:32:22;35.00;;;17.77;;
40449;SDS011;41787;53.570;10.032;2023-01-06T05:34:48;42.55;;;18.73;;
40449;SDS011;41787;53.570;10.032;2023-01-06T05:37:14;39.75;;;18.35;;
40449;SDS011;41787;53.570;10.032;2023-01-06T05:39:41;39.10;;;19.20;;
40449;SDS011;41787;53.570;10.032;2023-01-06T05:42:06;32.47;;;17.77;;
40449;SDS011;41787;53.570;10.032;2023-01-06T05:44:32;37.50;;;18.92;;
40449;SDS011;41787;53.570;10.032;2023-01-06T05:46:58;46.78;;;18.63;;
40449;SDS011;41787;53.570;10.032;2023-01-06T05:49:24;39.50;;;17.60;;
40449;SDS011;41787;53.570;10.032;2023-01-06T05:51:50;33.85;;;18.80;;
40449;SDS011;41787;53.570;10.032;2023-01-06T05:54:16;40.97;;;18.55;;
40449;SDS011;41787;53.570;10.032;2023-01-06T05:56:42;34.30;;;17.17;;
40449;SDS011;41787;53.570;10.032;2023-01-06T05:59:08;29.10;;;16.48;;
40449;SDS011;41787;53.570;10.032;2023-01-06T06:01:34;30.83;;;17.48;;
40449;SDS011;41787;53.570;10.032;2023-01-06T06:04:00;32.83;;;16.02;;
40449;SDS011;41787;53.570;10.032;2023-01-06T06:06:26;31.92;;;17.77;;
40449;SDS011;41787;53.570;10.032;2023-01-06T06:08:54;27.40;;;16.40;;
40449;SDS011;41787;53.570;10.032;2023-01-06T06:11:20;32.22;;;16.52;;
40449;SDS011;41787;53.570;10.032;2023-01-06T06:13:47;36.63;;;15.85;;
40449;SDS011;41787;53.570;10.032;2023-01-06T06:16:14;26.77;;;16.15;;
40449;SDS011;41787;53.570;10.032;2023-01-06T06:18:40;28.42;;;16.08;;
40449;SDS011;41787;53.570;10.032;2023-01-06T06:21:10;28.42;;;17.63;;
40449;SDS011;41787;53.570;10.032;2023-01-06T06:26:02;30.67;;;17.48;;
40449;SDS011;41787;53.570;10.032;2023-01-06T06:28:29;31.45;;;19.50;;
40449;SDS011;41787;53.570;10.032;2023-01-06T06:31:01;35.38;;;20.05;;
40449;SDS011;41787;53.570;10.032;2023-01-06T06:33:27;30.58;;;18.85;;
40449;SDS011;41787;53.570;10.032;2023-01-06T06:35:56;31.33;;;17.02;;
40449;SDS011;41787;53.570;10.032;2023-01-06T06:38:22;26.20;;;17.57;;
40449;SDS011;41787;53.570;10.032;2023-01-06T06:40:48;28.80;;;18.40;;
40449;SDS011;41787;53.570;10.032;2023-01-06T06:43:14;34.50;;;17.83;;
40449;SDS011;41787;53.570;10.032;2023-01-06T06:45:42;31.58;;;19.65;;
40449;SDS011;41787;53.570;10.032;2023-01-06T06:48:08;30.67;;;20.13;;
40449;SDS011;41787;53.570;10.032;2023-01-06T06:50:34;31.15;;;18.23;;
40449;SDS011;41787;53.570;10.032;2023-01-06T06:53:00;33.42;;;19.00;;
40449;SDS011;41787;53.570;10.032;2023-01-06T06:55:26;29.30;;;18.92;;
40449;SDS011;41787;53.570;10.032;2023-01-06T06:57:52;25.17;;;16.83;;
40449;SDS011;41787;53.570;10.032;2023-01-06T07:00:18;34.50;;;18.65;;
40449;SDS011;41787;53.570;10.032;2023-01-06T07:02:47;28.20;;;18.58;;
40449;SDS011;41787;53.570;10.032;2023-01-06T07:05:14;27.85;;;18.88;;
40449;SDS011;41787;53.570;10.032;2023-01-06T07:07:40;34.85;;;18.98;;
40449;SDS011;41787;53.570;10.032;2023-01-06T07:10:06;26.98;;;17.45;;
40449;SDS011;41787;53.570;10.032;2023-01-06T07:12:32;26.20;;;18.20;;
40449;SDS011;41787;53.570;10.032;2023-01-06T07:14:58;25.30;;;17.00;;
40449;SDS011;41787;53.570;10.032;2023-01-06T07:17:25;22.23;;;15.45;;
40449;SDS011;41787;53.570;10.032;2023-01-06T07:19:51;28.63;;;16.90;;
40449;SDS011;41787;53.570;10.032;2023-01-06T07:22:17;22.98;;;16.67;;
40449;SDS011;41787;53.570;10.032;2023-01-06T07:24:43;23.27;;;15.73;;
40449;SDS011;41787;53.570;10.032;2023-01-06T07:27:09;20.95;;;12.95;;
40449;SDS011;41787;53.570;10.032;2023-01-06T07:29:35;20.50;;;14.73;;
40449;SDS011;41787;53.570;10.032;2023-01-06T07:32:01;25.98;;;15.57;;
40449;SDS011;41787;53.570;10.032;2023-01-06T07:34:29;23.98;;;15.90;;
40449;SDS011;41787;53.570;10.032;2023-01-06T07:36:55;24.27;;;15.40;;
40449;SDS011;41787;53.570;10.032;2023-01-06T07:39:21;20.10;;;14.73;;
40449;SDS011;41787;53.570;10.032;2023-01-06T07:41:47;19.70;;;15.23;;
40449;SDS011;41787;53.570;10.032;2023-01-06T07:44:13;21.80;;;15.25;;
40449;SDS011;41787;53.570;10.032;2023-01-06T07:46:39;23.95;;;15.77;;
40449;SDS011;41787;53.570;10.032;2023-01-06T07:49:05;23.48;;;14.45;;
40449;SDS011;41787;53.570;10.032;2023-01-06T07:51:31;26.17;;;14.65;;
40449;SDS011;41787;53.570;10.032;2023-01-06T07:53:56;23.23;;;15.25;;
40449;SDS011;41787;53.570;10.032;2023-01-06T07:56:23;20.10;;;14.65;;
40449;SDS011;41787;53.570;10.032;2023-01-06T07:58:49;19.50;;;14.38;;
40449;SDS011;41787;53.570;10.032;2023-01-06T08:01:15;22.00;;;14.65;;
40449;SDS011;41787;53.570;10.032;2023-01-06T08:03:41;22.77;;;14.30;;
40449;SDS011;41787;53.570;10.032;2023-01-06T08:06:07;21.35;;;12.88;;
40449;SDS011;41787;53.570;10.032;2023-01-06T08:08:37;24.95;;;13.27;;
40449;SDS011;41787;53.570;10.032;2023-01-06T08:11:04;26.63;;;14.25;;
40449;SDS011;41787;53.570;10.032;2023-01-06T08:13:30;19.20;;;14.95;;
40449;SDS011;41787;53.570;10.032;2023-01-06T08:15:56;18.77;;;14.20;;
40449;SDS011;41787;53.570;10.032;2023-01-06T08:18:22;19.10;;;14.35;;
40449;SDS011;41787;53.570;10.032;2023-01-06T08:20:48;17.83;;;13.23;;
40449;SDS011;41787;53.570;10.032;2023-01-06T08:23:14;17.25;;;12.90;;
40449;SDS011;41787;53.570;10.032;2023-01-06T08:25:40;17.65;;;13.15;;
40449;SDS011;41787;53.570;10.032;2023-01-06T08:28:05;16.75;;;11.95;;
40449;SDS011;41787;53.570;10.032;2023-01-06T08:30:31;17.17;;;10.68;;
40449;SDS011;41787;53.570;10.032;2023-01-06T08:33:03;15.75;;;11.45;;
40449;SDS011;41787;53.570;10.032;2023-01-06T08:35:29;13.35;;;9.07;;
40449;SDS011;41787;53.570;10.032;2023-01-06T08:37:55;6.68;;;5.60;;
40449;SDS011;41787;53.570;10.032;2023-01-06T08:40:21;11.10;;;7.57;;
40449;SDS011;41787;53.570;10.032;2023-01-06T08:42:47;10.07;;;6.45;;
40449;SDS011;41787;53.570;10.032;2023-01-06T08:45:13;11.40;;;8.02;;
40449;SDS011;41787;53.570;10.032;2023-01-06T08:47:39;12.57;;;7.28;;
40449;SDS011;41787;53.570;10.032;2023-01-06T08:50:05;7.47;;;6.22;;
40449;SDS011;41787;53.570;10.032;2023-01-06T08:52:31;11.50;;;6.78;;
40449;SDS011;41787;53.570;10.032;2023-01-06T08:54:57;6.53;;;4.63;;
40449;SDS011;41787;53.570;10.032;2023-01-06T08:57:23;11.77;;;7.05;;
40449;SDS011;41787;53.570;10.032;2023-01-06T08:59:49;12.57;;;7.35;;
40449;SDS011;41787;53.570;10.032;2023-01-06T09:02:15;11.88;;;7.32;;
40449;SDS011;41787;53.570;10.032;2023-01-06T09:04:41;9.95;;;5.93;;
40449;SDS011;41787;53.570;10.032;2023-01-06T09:07:08;12.73;;;7.75;;
40449;SDS011;41787;53.570;10.032;2023-01-06T09:09:34;8.60;;;6.60;;
40449;SDS011;41787;53.570;10.032;2023-01-06T09:12:00;12.48;;;7.20;;
40449;SDS011;41787;53.570;10.032;2023-01-06T09:14:25;11.02;;;7.20;;
40449;SDS011;41787;53.570;10.032;2023-01-06T09:16:51;10.23;;;7.03;;
40449;SDS011;41787;53.570;10.032;2023-01-06T09:19:17;11.82;;;7.40;;
40449;SDS011;41787;53.570;10.032;2023-01-06T09:21:44;14.30;;;5.30;;
40449;SDS011;41787;53.570;10.032;2023-01-06T09:24:13;9.05;;;6.40;;
40449;SDS011;41787;53.570;10.032;2023-01-06T09:26:39;9.52;;;6.78;;
40449;SDS011;41787;53.570;10.032;2023-01-06T09:29:05;12.45;;;5.88;;
40449;SDS011;41787;53.570;10.032;2023-01-06T09:31:31;7.30;;;4.72;;
40449;SDS011;41787;53.570;10.032;2023-01-06T09:33:57;13.55;;;5.82;;
40449;SDS011;41787;53.570;10.032;2023-01-06T09:36:23;11.45;;;5.32;;
40449;SDS011;41787;53.570;10.032;2023-01-06T09:38:49;8.15;;;5.18;;
40449;SDS011;41787;53.570;10.032;2023-01-06T09:43:57;9.80;;;5.68;;
40449;SDS011;41787;53.570;10.032;2023-01-06T09:46:27;7.90;;;4.88;;
40449;SDS011;41787;53.570;10.032;2023-01-06T09:49:00;7.30;;;4.53;;
40449;SDS011;41787;53.570;10.032;2023-01-06T09:51:29;12.90;;;5.75;;
40449;SDS011;41787;53.570;10.032;2023-01-06T09:53:58;12.52;;;5.90;;
40449;SDS011;41787;53.570;10.032;2023-01-06T09:56:26;6.40;;;5.53;;
40449;SDS011;41787;53.570;10.032;2023-01-06T10:01:22;6.68;;;4.40;;
40449;SDS011;41787;53.570;10.032;2023-01-06T10:03:52;7.82;;;5.68;;
40449;SDS011;41787;53.570;10.032;2023-01-06T10:08:47;3.53;;;2.85;;
40449;SDS011;41787;53.570;10.032;2023-01-06T10:21:48;4.80;;;3.72;;
40449;SDS011;41787;53.570;10.032;2023-01-06T10:24:20;6.32;;;3.70;;
40449;SDS011;41787;53.570;10.032;2023-01-06T10:26:49;4.13;;;3.50;;
40449;SDS011;41787;53.570;10.032;2023-01-06T10:29:16;4.45;;;3.60;;
40449;SDS011;41787;53.570;10.032;2023-01-06T10:31:43;5.80;;;3.50;;
40449;SDS011;41787;53.570;10.032;2023-01-06T10:34:12;5.00;;;2.80;;
40449;SDS011;41787;53.570;10.032;2023-01-06T10:36:42;5.57;;;3.90;;
40449;SDS011;41787;53.570;10.032;2023-01-06T10:39:12;7.35;;;4.07;;
40449;SDS011;41787;53.570;10.032;2023-01-06T10:41:47;9.90;;;4.22;;
40449;SDS011;41787;53.570;10.032;2023-01-06T10:44:14;5.53;;;4.00;;
40449;SDS011;41787;53.570;10.032;2023-01-06T10:46:41;3.78;;;3.33;;
40449;SDS011;41787;53.570;10.032;2023-01-06T10:49:18;7.75;;;4.68;;
40449;SDS011;41787;53.570;10.032;2023-01-06T10:51:52;7.35;;;4.28;;
40449;SDS011;41787;53.570;10.032;2023-01-06T10:54:23;6.03;;;4.32;;
40449;SDS011;41787;53.570;10.032;2023-01-06T10:56:53;6.18;;;4.32;;
40449;SDS011;41787;53.570;10.032;2023-01-06T10:59:20;2.58;;;2.17;;
40449;SDS011;41787;53.570;10.032;2023-01-06T11:01:48;5.38;;;4.35;;
40449;SDS011;41787;53.570;10.032;2023-01-06T11:04:14;6.88;;;3.75;;
40449;SDS011;41787;53.570;10.032;2023-01-06T11:06:51;5.30;;;3.70;;
40449;SDS011;41787;53.570;10.032;2023-01-06T11:09:31;6.75;;;4.22;;
40449;SDS011;41787;53.570;10.032;2023-01-06T11:11:59;6.47;;;3.53;;
40449;SDS011;41787;53.570;10.032;2023-01-06T11:14:29;8.65;;;4.82;;
40449;SDS011;41787;53.570;10.032;2023-01-06T11:16:59;4.45;;;3.97;;
40449;SDS011;41787;53.570;10.032;2023-01-06T11:19:36;5.10;;;3.40;;
40449;SDS011;41787;53.570;10.032;2023-01-06T11:22:03;5.00;;;3.15;;
40449;SDS011;41787;53.570;10.032;2023-01-06T11:24:29;4.18;;;3.08;;
40449;SDS011;41787;53.570;10.032;2023-01-06T11:26:56;4.30;;;2.55;;
40449;SDS011;41787;53.570;10.032;2023-01-06T11:31:49;3.17;;;2.25;;
40449;SDS011;41787;53.570;10.032;2023-01-06T11:34:21;4.82;;;1.60;;
40449;SDS011;41787;53.570;10.032;2023-01-06T11:36:48;6.18;;;1.38;;
40449;SDS011;41787;53.570;10.032;2023-01-06T11:39:18;2.80;;;1.40;;
40449;SDS011;41787;53.570;10.032;2023-01-06T11:41:46;2.72;;;1.02;;
40449;SDS011;41787;53.570;10.032;2023-01-06T11:44:17;1.52;;;0.90;;
40449;SDS011;41787;53.570;10.032;2023-01-06T11:46:49;3.17;;;1.88;;
40449;SDS011;41787;53.570;10.032;2023-01-06T11:49:27;5.75;;;1.90;;
40449;SDS011;41787;53.570;10.032;2023-01-06T11:51:58;3.17;;;0.85;;
40449;SDS011;41787;53.570;10.032;2023-01-06T11:54:30;4.38;;;0.82;;
40449;SDS011;41787;53.570;10.032;2023-01-06T11:56:57;2.05;;;0.80;;
40449;SDS011;41787;53.570;10.032;2023-01-06T11:59:23;4.85;;;1.00;;
40449;SDS011;41787;53.570;10.032;2023-01-06T12:01:51;9.18;;;0.98;;
40449;SDS011;41787;53.570;10.032;2023-01-06T12:09:47;4.25;;;0.63;;
40449;SDS011;41787;53.570;10.032;2023-01-06T12:12:19;4.68;;;1.00;;
40449;SDS011;41787;53.570;10.032;2023-01-06T12:14:45;3.83;;;0.80;;
40449;SDS011;41787;53.570;10.032;2023-01-06T12:17:13;3.75;;;0.77;;
40449;SDS011;41787;53.570;10.032;2023-01-06T12:22:16;6.63;;;1.10;;
40449;SDS011;41787;53.570;10.032;2023-01-06T12:24:44;4.55;;;0.90;;
40449;SDS011;41787;53.570;10.032;2023-01-06T12:27:11;6.38;;;0.75;;
40449;SDS011;41787;53.570;10.032;2023-01-06T12:29:40;4.90;;;1.00;;
40449;SDS011;41787;53.570;10.032;2023-01-06T12:32:13;7.55;;;1.63;;
40449;SDS011;41787;53.570;10.032;2023-01-06T12:34:42;5.82;;;1.02;;
40449;SDS011;41787;53.570;10.032;2023-01-06T12:37:19;4.00;;;0.85;;
40449;SDS011;41787;53.570;10.032;2023-01-06T12:44:53;5.05;;;0.80;;
40449;SDS011;41787;53.570;10.032;2023-01-06T12:47:25;6.97;;;0.85;;
40449;SDS011;41787;53.570;10.032;2023-01-06T12:49:54;2.53;;;0.73;;
40449;SDS011;41787;53.570;10.032;2023-01-06T12:52:22;3.13;;;0.80;;
40449;SDS011;41787;53.570;10.032;2023-01-06T12:54:54;4.20;;;0.98;;
40449;SDS011;41787;53.570;10.032;2023-01-06T12:57:36;4.57;;;0.60;;
40449;SDS011;41787;53.570;10.032;2023-01-06T13:00:19;5.93;;;1.00;;
40449;SDS011;41787;53.570;10.032;2023-01-06T13:10:45;4.40;;;1.10;;
40449;SDS011;41787;53.570;10.032;2023-01-06T13:15:59;2.22;;;0.63;;
40449;SDS011;41787;53.570;10.032;2023-01-06T13:18:30;2.72;;;0.55;;
40449;SDS011;41787;53.570;10.032;2023-01-06T13:21:02;6.85;;;1.50;;
40449;SDS011;41787;53.570;10.032;2023-01-06T13:23:48;6.75;;;1.30;;
40449;SDS011;41787;53.570;10.032;2023-01-06T13:29:14;11.30;;;1.08;;
40449;SDS011;41787;53.570;10.032;2023-01-06T13:31:54;10.32;;;1.05;;
40449;SDS011;41787;53.570;10.032;2023-01-06T13:39:23;5.82;;;0.88;;
40449;SDS011;41787;53.570;10.032;2023-01-06T13:41:51;7.82;;;1.00;;
40449;SDS011;41787;53.570;10.032;2023-01-06T13:44:22;6.85;;;1.38;;
40449;SDS011;41787;53.570;10.032;2023-01-06T13:46:50;4.93;;;0.90;;
40449;SDS011;41787;53.570;10.032;2023-01-06T13:49:17;3.22;;;1.05;;
40449;SDS011;41787;53.570;10.032;2023-01-06T13:51:44;6.55;;;1.25;;
40449;SDS011;41787;53.570;10.032;2023-01-06T13:57:56;4.38;;;1.00;;
40449;SDS011;41787;53.570;10.032;2023-01-06T14:05:04;6.30;;;1.40;;
40449;SDS011;41787;53.570;10.032;2023-01-06T14:07:37;9.93;;;1.33;;
40449;SDS011;41787;53.570;10.032;2023-01-06T14:10:05;8.80;;;2.03;;
40449;SDS011;41787;53.570;10.032;2023-01-06T14:12:32;6.15;;;1.42;;
40449;SDS011;41787;53.570;10.032;2023-01-06T14:15:04;3.85;;;1.02;;
40449;SDS011;41787;53.570;10.032;2023-01-06T14:20:00;7.95;;;1.70;;
40449;SDS011;41787;53.570;10.032;2023-01-06T14:22:26;8.63;;;1.13;;
40449;SDS011;41787;53.570;10.032;2023-01-06T14:24:55;6.45;;;0.95;;
40449;SDS011;41787;53.570;10.032;2023-01-06T14:30:22;5.03;;;1.23;;
40449;SDS011;41787;53.570;10.032;2023-01-06T14:35:15;7.45;;;1.02;;
40449;SDS011;41787;53.570;10.032;2023-01-06T14:37:44;7.80;;;1.48;;
40449;SDS011;41787;53.570;10.032;2023-01-06T14:40:24;10.10;;;1.45;;
40449;SDS011;41787;53.570;10.032;2023-01-06T14:42:51;7.57;;;1.25;;
40449;SDS011;41787;53.570;10.032;2023-01-06T14:45:19;6.88;;;1.25;;
40449;SDS011;41787;53.570;10.032;2023-01-06T14:47:47;4.07;;;0.98;;
40449;SDS011;41787;53.570;10.032;2023-01-06T14:50:19;10.10;;;1.23;;
40449;SDS011;41787;53.570;10.032;2023-01-06T14:52:53;8.32;;;1.00;;
40449;SDS011;41787;53.570;10.032;2023-01-06T14:55:20;4.88;;;1.33;;
40449;SDS011;41787;53.570;10.032;2023-01-06T14:57:47;7.15;;;1.75;;
40449;SDS011;41787;53.570;10.032;2023-01-06T15:02:43;5.47;;;1.40;;
40449;SDS011;41787;53.570;10.032;2023-01-06T15:05:17;8.88;;;1.65;;
40449;SDS011;41787;53.570;10.032;2023-01-06T15:08:05;11.40;;;1.70;;
40449;SDS011;41787;53.570;10.032;2023-01-06T15:10:34;8.93;;;1.77;;
40449;SDS011;41787;53.570;10.032;2023-01-06T15:15:29;6.47;;;1.58;;
40449;SDS011;41787;53.570;10.032;2023-01-06T15:17:55;10.13;;;1.48;;
40449;SDS011;41787;53.570;10.032;2023-01-06T15:20:24;8.63;;;1.40;;
40449;SDS011;41787;53.570;10.032;2023-01-06T15:22:52;5.50;;;0.90;;
40449;SDS011;41787;53.570;10.032;2023-01-06T15:25:19;7.25;;;1.45;;
40449;SDS011;41787;53.570;10.032;2023-01-06T15:27:46;5.38;;;1.25;;
40449;SDS011;41787;53.570;10.032;2023-01-06T15:30:16;5.63;;;1.20;;
40449;SDS011;41787;53.570;10.032;2023-01-06T15:32:42;4.47;;;1.13;;
40449;SDS011;41787;53.570;10.032;2023-01-06T15:35:13;10.68;;;1.75;;
40449;SDS011;41787;53.570;10.032;2023-01-06T15:37:41;7.22;;;1.25;;
40449;SDS011;41787;53.570;10.032;2023-01-06T15:40:09;6.80;;;1.30;;
40449;SDS011;41787;53.570;10.032;2023-01-06T15:42:37;6.13;;;1.08;;
40449;SDS011;41787;53.570;10.032;2023-01-06T15:45:04;6.07;;;1.40;;
40449;SDS011;41787;53.570;10.032;2023-01-06T15:50:06;11.35;;;1.52;;
40449;SDS011;41787;53.570;10.032;2023-01-06T15:52:35;10.18;;;1.38;;
40449;SDS011;41787;53.570;10.032;2023-01-06T15:55:03;5.35;;;1.10;;
40449;SDS011;41787;53.570;10.032;2023-01-06T15:57:30;8.57;;;1.95;;
40449;SDS011;41787;53.570;10.032;2023-01-06T16:00:01;4.72;;;0.98;;
40449;SDS011;41787;53.570;10.032;2023-01-06T16:02:28;4.25;;;1.10;;
40449;SDS011;41787;53.570;10.032;2023-01-06T16:04:54;7.70;;;1.73;;
40449;SDS011;41787;53.570;10.032;2023-01-06T16:07:39;9.07;;;1.45;;
40449;SDS011;41787;53.570;10.032;2023-01-06T16:15:43;8.77;;;2.40;;
40449;SDS011;41787;53.570;10.032;2023-01-06T16:18:09;12.82;;;2.80;;
40449;SDS011;41787;53.570;10.032;2023-01-06T16:20:36;9.13;;;1.77;;
40449;SDS011;41787;53.570;10.032;2023-01-06T16:23:02;9.02;;;1.52;;
40449;SDS011;41787;53.570;10.032;2023-01-06T16:25:32;7.53;;;1.48;;
40449;SDS011;41787;53.570;10.032;2023-01-06T16:28:02;8.00;;;1.45;;
40449;SDS011;41787;53.570;10.032;2023-01-06T16:30:29;8.57;;;1.48;;
40449;SDS011;41787;53.570;10.032;2023-01-06T16:32:57;13.18;;;1.65;;
40449;SDS011;41787;53.570;10.032;2023-01-06T16:35:30;10.00;;;1.52;;